Flight Track Log - Related Links

Times and Time Zones

All times are in EST time to prevent confusion due to time zone crossing. See the AWI4029 flight status page for this flight to view local times or setup timezone preferences in your user account.

Time Position Orientation Groundspeed Altitude Reporting Facility
EST Latitude Longitude Course Direction KTS MPH feet Rate Location/Type
Fri 10:01:26 AM 38.2000 -85.7333 106° East 168 193 2,200  Level Louisville TRACON
Fri 10:02:38 AM 38.2589 -85.7411 354° North 186 214 5,400 2,481 Climbing Indianapolis Center
Fri 10:03:39 AM 38.2539 -85.6647 95° East 235 270 7,700 1,902 Climbing Indianapolis Center
Fri 10:04:00 AM 37.9255 -85.3070 98° East  Level Estimated
Fri 10:04:41 AM 38.2047 -85.5839 128° Southeast 284 327 9,300  Level Indianapolis Center
Fri 10:05:00 AM 37.9369 -85.1748 84° East  Level FlightAware Approximate
Fri 10:05:42 AM 38.1386 -85.5086 138° Southeast 332 382 11,000  Level Indianapolis Center
Fri 10:06:00 AM 37.8730 -85.0693 106° East  Level Estimated
Fri 10:06:44 AM 38.0606 -85.4464 148° Southeast 334 384 12,900  Level Indianapolis Center
Fri 10:07:45 AM 37.9728 -85.3811 150° Southeast 357 411 14,900 2,049 Climbing Indianapolis Center
Fri 10:08:47 AM 37.8647 -85.3019 150° Southeast 369 425 17,100 1,548 Climbing Indianapolis Center
Fri 10:09:49 AM 37.7728 -85.2328 149° Southeast 374 430 18,100 1,258 Climbing Indianapolis Center
Fri 10:10:51 AM 37.6758 -85.1639 151° Southeast 403 464 19,700 1,415 Climbing Indianapolis Center
Fri 10:11:52 AM 37.5803 -85.0925 149° Southeast 402 463 21,000 1,317 Climbing Indianapolis Center
Fri 10:12:54 AM 37.4817 -85.0208 150° Southeast 406 467 22,400 1,171 Climbing Indianapolis Center
Fri 10:13:55 AM 37.3817 -84.9475 150° Southeast 413 475 23,400 976 Climbing Indianapolis Center
Fri 10:14:57 AM 37.2781 -84.8725 150° Southeast 424 488 24,400 976 Climbing Indianapolis Center
Fri 10:15:58 AM 37.1739 -84.7975 150° Southeast 429 494 25,400 1,024 Climbing Indianapolis Center
Fri 10:17:00 AM 37.0519 -84.7081 150° Southeast 434 499 26,500 774 Climbing Indianapolis Center
Fri 10:18:02 AM 36.9608 -84.6433 150° Southeast 440 506 27,000 244 Climbing Indianapolis Center
Fri 10:19:03 AM 36.8306 -84.5503 150° Southeast 447 514 27,000  Level Indianapolis Center
Fri 10:20:05 AM 36.7289 -84.4775 150° Southeast 444 511 27,000  Level Indianapolis Center
Fri 10:21:07 AM 36.6233 -84.4017 150° Southeast 441 507 27,000  Level Indianapolis Center
Fri 10:22:08 AM 36.5178 -84.3261 150° Southeast 437 503 27,000  Level Indianapolis Center
Fri 10:23:10 AM 36.4022 -84.2450 151° Southeast 442 509 27,000  Level Indianapolis Center
Fri 10:24:12 AM 36.2931 -84.1675 150° Southeast 447 514 27,000  Level Indianapolis Center
Fri 10:25:13 AM 36.1844 -84.0914 151° Southeast 446 513 27,000  Level Indianapolis Center
Fri 10:26:03 AM 36.0958 -84.0283 150° Southeast 439 505 27,000  Level Atlanta Center
Fri 10:27:03 AM 35.9872 -83.9542 151° Southeast 444 511 27,000  Level Atlanta Center
Fri 10:28:03 AM 35.9058 -83.8439 132° Southeast 435 501 27,000  Level Atlanta Center
Fri 10:29:03 AM 35.8992 -83.6850 93° East 413 475 27,000  Level Atlanta Center
Fri 10:30:03 AM 35.8967 -83.5261 91° East 431 496 27,000  Level Atlanta Center
Fri 10:31:03 AM 35.8936 -83.3672 91° East 446 513 27,000  Level Atlanta Center
Fri 10:32:03 AM 35.8906 -83.1928 91° East 460 529 27,000  Level Atlanta Center
Fri 10:33:03 AM 35.8872 -83.0339 91° East 460 529 27,000 -300 Level Atlanta Center
Fri 10:34:03 AM 35.8589 -82.8756 102° East 460 529 26,400 -1,050 Descending Atlanta Center
Fri 10:35:03 AM 35.8300 -82.7172 103° East 465 535 24,900 -1,550 Descending Atlanta Center
Fri 10:36:03 AM 35.8011 -82.5692 103° East 465 535 23,300 -2,050 Descending Atlanta Center
Fri 10:37:03 AM 35.7744 -82.4211 102° East 450 518 20,800 -2,100 Descending Atlanta Center
Fri 10:38:03 AM 35.7453 -82.2861 105° East 429 494 19,100 -1,500 Descending Atlanta Center
Fri 10:39:03 AM 35.7250 -82.1689 102° East 402 463 17,800 -1,248 Descending Atlanta Center
Fri 10:40:08 AM 35.6911 -82.0111 105° East 404 465 16,500 -1,250 Descending Atlanta Center
Fri 10:41:03 AM 35.6706 -81.9017 103° East 397 457 15,300 -1,357 Descending Atlanta Center
Fri 10:42:03 AM 35.6431 -81.7644 104° East 397 457 13,900 -1,475 Descending Atlanta Center
Fri 10:42:04 AM 35.6406 -81.7517 104° East 407 468 13,800 -1,412 Descending Atlanta Center
Fri 10:43:11 AM 35.6128 -81.6119 104° East 384 442 12,300 -908 Descending Atlanta Center
Fri 10:44:03 AM 35.5717 -81.5314 122° Southeast 371 427 12,000 -197 Descending Atlanta Center
Fri 10:44:12 AM 35.5544 -81.5064 130° Southeast 343 395 12,100 -100 Climbing Atlanta Center
Fri 10:45:03 AM 35.5092 -81.4389 129° Southeast 353 406 11,900  Descending Atlanta Center
Fri 10:45:12 AM 35.4919 -81.4142 131° Southeast 344 396 12,100 -100 Climbing Atlanta Center
Fri 10:46:03 AM 35.4403 -81.3392 130° Southeast 353 406 11,800 -590 Descending Atlanta Center
Fri 10:46:13 AM 35.4317 -81.3217 121° Southeast 343 395 11,500 -1,800 Descending Atlanta Center
Fri 10:47:03 AM 35.3819 -81.2519 131° Southeast 342 394 10,000 -1,745 Descending Atlanta Center
Fri 10:47:08 AM 35.3756 -81.2419 128° Southeast 336 387 9,900 -1,000 Descending Atlanta Center
Fri 10:48:03 AM 35.3236 -81.1675 131° Southeast 337 388 9,000 -787 Descending Atlanta Center
Fri 10:48:09 AM 35.3194 -81.1600 124° Southeast 314 361 9,100  Climbing Atlanta Center
Fri 10:49:03 AM 35.2697 -81.0878 130° Southeast 325 374 9,000  Descending Atlanta Center
Fri 10:49:04 AM 35.2675 -81.0856 141° Southeast 311 358 9,100 -700 Climbing Atlanta Center
Fri 10:50:03 AM 35.1900 -81.0703 171° South 279 321 8,300 -689 Descending Atlanta Center
Fri 10:50:05 AM 35.1919 -81.0703 360° North 274 315 8,400 -1,161 Climbing Atlanta Center
Fri 10:51:05 AM 35.1169 -81.0653 177° South 266 306 7,100 -1,370 Descending Atlanta Center
Fri 10:52:12 AM 35.0353 -81.0531 173° South 250 288 5,500 -1,406 Descending Atlanta Center
Fri 10:53:13 AM 35.0169 -80.9878 109° East 201 231 4,100 -851 Descending Atlanta Center
Fri 10:54:26 AM 35.0553 -80.9383 47° Northeast 142 163 3,600 -472 Descending Atlanta Center
Fri 10:55:20 AM 35.0908 -80.9444 352° North 148 170 3,100 -678 Descending Atlanta Center
Fri 10:56:21 AM 35.1328 -80.9456 359° North 150 173 2,300 -787 Descending Atlanta Center
Fri 10:57:22 AM 35.1661 -80.9519 351° North 128 147 1,500 -787 Descending Atlanta Center

Login

Don't have an account? Register now (free) for customized features, flight alerts, and more!